SCEL/SCL METAR and TAF weather

Enter ICAO airport designator
Station Type Date Time Source
SCEL METAR 2021/07/28 20:00 UTC NOAA

SCEL 282000Z 15007KT 9000 NSC 22/M11 Q1016 NOSIG


Station Type Date Time Source
SCEL Decoded METAR 2021/07/28 20:00 UTC NOAA

Pudahuel, Chile (SCEL) 33-23S 070-47W 476M
Jul 28, 2021 - 04:00 PM EDT / 2021.07.28 2000 UTC
Wind: from the SSE (150 degrees) at 8 MPH (7 KT):0
Visibility: 5 mile(s):0
Temperature: 71 F (22 C)
Dew Point: 12 F (-11 C)
Relative Humidity: 10%
Pressure (altimeter): 30.00 in. Hg (1016 hPa)
ob: SCEL 282000Z 15007KT 9000 NSC 22/M11 Q1016 NOSIG
cycle: 20

Station Type Date Time Source
SCEL TAF 2021/07/28 18:03 UTC NOAA

TAF SCEL 281607Z 2818/2918 19008KT 8000 NSC TX20/2818Z TNM01/2911Z
BECMG 2905/2907 16004KT 5000 HZ
TEMPO 2908/2913 VRB02KT 3000 BR
BECMG 2915/2917 8000

Example: see airport list